Time;durP1;ratioP1;P1;durP2;ratioP2;P2;SDS_P1;SDS_P2;PMS_P1;PMS_P2;Temp;Humidity;BMP_temperature;BMP_pressure;BME280_temperature;BME280_humidity;BME280_pressure;Samples;Min_cycle;Max_cycle;Signal;HPM_P1;HPM_P2
2023/09/02 00:00:19;;;;;;;8.18;0.50;;;;;;;14.71;100.00;100984.09;5051146;28;20037;-53
2023/09/02 00:02:44;;;;;;;0.90;0.20;;;;;;;14.65;100.00;100975.06;5051666;28;20032;-52
2023/09/02 00:05:09;;;;;;;0.82;0.35;;;;;;;14.70;100.00;100979.78;5061848;28;20552;-53
2023/09/02 00:07:35;;;;;;;0.13;0.13;;;;;;;14.72;100.00;100983.88;5059442;28;20021;-50
2023/09/02 00:10:00;;;;;;;1.30;0.50;;;;;;;14.70;100.00;100987.78;5055151;28;20028;-54
2023/09/02 00:12:26;;;;;;;4.55;1.42;;;;;;;14.59;100.00;100983.91;5056969;28;20033;-53
2023/09/02 00:14:51;;;;;;;1.52;0.98;;;;;;;14.61;100.00;100989.81;5058618;28;20031;-52
2023/09/02 00:17:16;;;;;;;0.60;0.60;;;;;;;14.67;100.00;100989.03;5055772;28;20056;-52
2023/09/02 00:19:43;;;;;;;1.23;0.60;;;;;;;14.72;100.00;100983.06;5056212;28;20029;-51
2023/09/02 00:22:08;;;;;;;0.90;0.40;;;;;;;14.74;100.00;100984.50;5061148;28;20063;-50
2023/09/02 00:24:34;;;;;;;4.18;1.35;;;;;;;14.80;100.00;100980.19;5054909;28;20173;-50
2023/09/02 00:26:59;;;;;;;0.63;0.28;;;;;;;14.87;100.00;100997.03;5053272;28;20033;-52
2023/09/02 00:29:24;;;;;;;9.35;0.90;;;;;;;14.96;100.00;100992.28;5055298;28;20094;-51
2023/09/02 00:31:50;;;;;;;1.05;0.47;;;;;;;15.01;100.00;100998.66;5060804;28;20106;-51
2023/09/02 00:34:15;;;;;;;0.20;0.20;;;;;;;15.00;100.00;100991.69;5060869;28;20470;-55
2023/09/02 00:36:40;;;;;;;0.30;0.30;;;;;;;14.91;100.00;100987.56;5055084;28;20545;-53
2023/09/02 00:39:06;;;;;;;0.68;0.50;;;;;;;14.80;100.00;100989.00;5058670;28;20132;-49
2023/09/02 00:41:42;;;;;;;4.55;1.00;;;;;;;14.72;100.00;100977.75;5060933;28;20396;-49
2023/09/02 00:44:08;;;;;;;1.23;0.40;;;;;;;14.80;100.00;100980.19;5051574;28;20029;-51
2023/09/02 00:46:33;;;;;;;0.73;0.70;;;;;;;14.87;100.00;100980.16;5053430;28;20033;-53
2023/09/02 00:48:59;;;;;;;0.95;0.60;;;;;;;14.86;100.00;100967.88;5050025;28;20520;-51
2023/09/02 00:51:25;;;;;;;0.40;0.40;;;;;;;14.82;100.00;100970.13;5062903;28;20031;-54
2023/09/02 00:53:50;;;;;;;2.05;0.38;;;;;;;14.83;100.00;100972.56;5051428;28;20515;-51
2023/09/02 00:56:17;;;;;;;1.45;0.60;;;;;;;14.91;100.00;100971.53;5050308;28;20028;-49
2023/09/02 00:58:43;;;;;;;1.88;0.93;;;;;;;15.03;100.00;100980.56;5053116;28;20112;-51
2023/09/02 01:01:09;;;;;;;1.20;1.10;;;;;;;15.16;100.00;100979.72;5058272;28;20429;-53
2023/09/02 01:03:35;;;;;;;2.83;1.35;;;;;;;15.24;100.00;100973.34;5056712;28;20090;-49
2023/09/02 01:06:04;;;;;;;7.60;1.63;;;;;;;15.37;100.00;100973.28;5051092;28;20120;-54
2023/09/02 01:08:31;;;;;;;1.38;0.88;;;;;;;15.46;100.00;100971.19;5052364;28;20032;-54
2023/09/02 01:10:59;;;;;;;3.13;1.55;;;;;;;15.45;100.00;100970.38;5057910;28;20500;-51
2023/09/02 01:13:29;;;;;;;3.65;2.42;;;;;;;15.54;100.00;100967.47;5058850;28;20038;-51
2023/09/02 01:15:54;;;;;;;3.45;2.75;;;;;;;15.64;100.00;100970.50;5053780;28;20113;-54
2023/09/02 01:18:27;;;;;;;6.93;3.65;;;;;;;15.73;100.00;100976.47;5060828;28;20391;-53
2023/09/02 01:21:20;;;;;;;10.93;5.18;;;;;;;15.82;100.00;100981.34;5051181;28;20021;-54
2023/09/02 01:24:16;;;;;;;8.57;5.07;;;;;;;15.97;100.00;100978.41;5055061;28;20128;-52
2023/09/02 01:27:12;;;;;;;11.48;6.53;;;;;;;16.19;100.00;100988.78;5063218;28;20028;-49
2023/09/02 01:30:05;;;;;;;19.30;8.00;;;;;;;16.26;100.00;100987.72;5052000;28;20024;-50
2023/09/02 01:32:38;;;;;;;10.32;7.10;;;;;;;16.40;100.00;100992.97;5043564;28;20052;-54
2023/09/02 01:35:06;;;;;;;11.30;6.63;;;;;;;16.51;100.00;100994.94;5052148;28;20470;-54
2023/09/02 01:37:42;;;;;;;9.30;7.25;;;;;;;16.56;100.00;101000.44;5059740;28;20036;-53
2023/09/02 01:40:10;;;;;;;8.93;6.47;;;;;;;16.68;100.00;101009.41;5058300;28;20052;-50
2023/09/02 01:42:36;;;;;;;11.15;7.60;;;;;;;16.79;100.00;101008.72;5052643;28;20033;-51
2023/09/02 01:45:02;;;;;;;8.77;6.50;;;;;;;16.84;100.00;101016.13;5050272;28;20512;-53
2023/09/02 01:47:28;;;;;;;10.00;6.57;;;;;;;16.81;100.00;101007.72;5057405;28;20036;-49
2023/09/02 01:49:54;;;;;;;5.70;5.15;;;;;;;16.86;100.00;101018.59;5055096;28;20020;-55
2023/09/02 01:52:21;;;;;;;8.75;6.38;;;;;;;16.91;100.00;101016.88;5060544;28;20109;-49
2023/09/02 01:54:47;;;;;;;11.73;6.95;;;;;;;16.93;100.00;101019.31;5059701;28;20431;-53
2023/09/02 01:57:12;;;;;;;6.32;5.35;;;;;;;16.94;100.00;101029.84;5057904;28;20082;-53
2023/09/02 01:59:38;;;;;;;8.93;6.82;;;;;;;16.92;100.00;101029.22;5047945;28;20375;-55
2023/09/02 02:02:03;;;;;;;7.45;6.28;;;;;;;16.93;100.00;101033.53;5060214;28;20105;-50
2023/09/02 02:04:28;;;;;;;8.77;6.00;;;;;;;16.97;100.00;101041.97;5048564;28;20028;-52
2023/09/02 02:07:02;;;;;;;11.45;6.82;;;;;;;16.97;100.00;101039.28;5055215;28;20036;-50
2023/09/02 02:09:35;;;;;;;9.02;6.30;;;;;;;16.96;100.00;101037.63;5049603;28;20481;-50
2023/09/02 02:12:03;;;;;;;6.15;4.38;;;;;;;17.00;100.00;101046.88;5058133;28;20035;-53
2023/09/02 02:14:33;;;;;;;6.40;4.43;;;;;;;17.02;100.00;101050.16;5049914;28;20032;-51
2023/09/02 02:16:58;;;;;;;5.80;4.38;;;;;;;17.03;100.00;101061.69;5056951;28;20029;-54
2023/09/02 02:19:24;;;;;;;9.98;4.80;;;;;;;17.08;100.00;101056.50;5053685;28;20565;-53
2023/09/02 02:21:50;;;;;;;6.65;5.03;;;;;;;17.14;100.00;101056.44;5049629;28;20024;-55
2023/09/02 02:24:15;;;;;;;6.15;5.25;;;;;;;17.18;100.00;101060.31;5058076;28;20020;-54
2023/09/02 02:26:40;;;;;;;6.53;5.57;;;;;;;17.14;100.00;101059.13;5073316;28;20497;-53
2023/09/02 02:29:06;;;;;;;4.32;3.65;;;;;;;17.12;100.00;101066.56;5055197;28;20078;-52
2023/09/02 02:31:33;;;;;;;6.78;4.72;;;;;;;17.15;100.00;101067.97;5054141;28;20836;-52
2023/09/02 02:33:58;;;;;;;6.07;4.10;;;;;;;17.19;100.00;101066.47;5050538;28;20044;-54
2023/09/02 02:36:24;;;;;;;6.93;5.70;;;;;;;17.17;100.00;101069.41;5056970;28;20449;-51
2023/09/02 02:38:49;;;;;;;7.07;4.90;;;;;;;17.14;100.00;101077.88;5053989;28;20025;-53
2023/09/02 02:41:14;;;;;;;6.25;4.93;;;;;;;17.12;100.00;101076.47;5057868;28;20032;-51
2023/09/02 02:43:40;;;;;;;5.20;4.70;;;;;;;17.12;100.00;101079.97;5053309;28;20064;-53
2023/09/02 02:46:05;;;;;;;6.22;4.40;;;;;;;17.11;100.00;101072.13;5050778;28;20117;-54
2023/09/02 02:48:31;;;;;;;5.13;4.30;;;;;;;17.11;100.00;101072.94;5054224;28;20079;-51
2023/09/02 02:50:57;;;;;;;8.23;5.35;;;;;;;17.13;100.00;101078.09;5044352;28;20033;-53
2023/09/02 02:53:23;;;;;;;6.47;5.43;;;;;;;17.10;100.00;101083.91;5050641;28;20040;-55
2023/09/02 02:55:48;;;;;;;7.30;5.63;;;;;;;17.08;100.00;101081.41;5054250;28;20074;-54
2023/09/02 02:58:15;;;;;;;8.55;5.63;;;;;;;17.06;100.00;101086.16;5060547;28;20490;-50
2023/09/02 03:00:42;;;;;;;8.52;4.68;;;;;;;17.08;100.00;101091.31;5049225;28;20032;-54
2023/09/02 03:03:08;;;;;;;6.10;5.07;;;;;;;17.09;100.00;101099.16;5050081;28;20102;-54
2023/09/02 03:05:40;;;;;;;5.80;4.10;;;;;;;17.07;100.00;101084.34;5048172;28;20040;-53
2023/09/02 03:08:06;;;;;;;5.82;4.78;;;;;;;17.10;100.00;101090.06;5065086;28;20499;-52
2023/09/02 03:10:36;;;;;;;6.47;5.07;;;;;;;17.12;100.00;101092.53;5060091;28;20036;-50
2023/09/02 03:13:02;;;;;;;9.55;4.43;;;;;;;17.13;100.00;101099.53;5051895;28;20123;-53
2023/09/02 03:15:28;;;;;;;6.97;4.35;;;;;;;17.13;100.00;101097.66;5055486;28;20068;-52
2023/09/02 03:17:53;;;;;;;10.25;4.88;;;;;;;17.10;100.00;101090.06;5047506;28;20191;-52
2023/09/02 03:20:19;;;;;;;7.18;4.78;;;;;;;17.10;100.00;101090.06;5051330;28;20527;-56
2023/09/02 03:22:44;;;;;;;8.50;5.38;;;;;;;17.09;100.00;101088.44;5059469;28;20039;-54
2023/09/02 03:25:09;;;;;;;8.13;4.25;;;;;;;17.08;100.00;101096.69;5058965;28;20036;-53
2023/09/02 03:27:39;;;;;;;4.07;3.45;;;;;;;17.04;100.00;101099.00;5059023;28;20148;-54
2023/09/02 03:30:08;;;;;;;3.42;3.13;;;;;;;17.00;100.00;101119.22;5055442;28;20055;-51
2023/09/02 03:32:34;;;;;;;4.13;2.90;;;;;;;17.02;100.00;101109.09;5047169;28;20053;-56
2023/09/02 03:35:02;;;;;;;6.38;3.47;;;;;;;17.02;100.00;101109.09;5060239;28;20076;-54
2023/09/02 03:37:27;;;;;;;8.55;4.13;;;;;;;17.06;100.00;101109.47;5051918;28;20482;-51
2023/09/02 03:39:53;;;;;;;12.60;3.53;;;;;;;17.01;100.00;101112.78;5045524;28;20110;-55
2023/09/02 03:42:19;;;;;;;7.63;3.60;;;;;;;17.00;100.00;101128.06;5054623;28;20393;-52
2023/09/02 03:44:44;;;;;;;4.97;4.15;;;;;;;16.90;100.00;101134.94;5052913;28;20087;-53
2023/09/02 03:47:09;;;;;;;9.23;4.72;;;;;;;16.85;100.00;101129.41;5054054;28;20382;-56
2023/09/02 03:49:35;;;;;;;5.85;4.50;;;;;;;16.86;100.00;101126.53;5051592;28;20060;-55
2023/09/02 03:52:00;;;;;;;8.30;5.13;;;;;;;16.86;100.00;101125.72;5055971;28;20080;-52
2023/09/02 03:54:25;;;;;;;8.07;4.60;;;;;;;16.83;100.00;101137.69;5051599;28;20032;-54
2023/09/02 03:56:50;;;;;;;5.22;3.88;;;;;;;16.83;100.00;101142.19;5058749;28;20103;-54
2023/09/02 03:59:16;;;;;;;6.80;4.70;;;;;;;16.84;100.00;101143.84;5061364;28;20048;-51
2023/09/02 04:01:41;;;;;;;5.93;4.00;;;;;;;16.86;100.00;101139.91;5052284;28;20039;-51
2023/09/02 04:04:06;;;;;;;8.98;5.25;;;;;;;16.85;100.00;101140.94;5051091;28;20119;-53
2023/09/02 04:06:32;;;;;;;7.45;4.93;;;;;;;16.85;100.00;101150.84;5054067;28;20063;-51
2023/09/02 04:08:57;;;;;;;11.10;6.55;;;;;;;16.86;100.00;101149.81;5056377;28;20033;-56
2023/09/02 04:11:23;;;;;;;6.72;4.47;;;;;;;16.88;100.00;101153.06;5055501;28;20076;-53
2023/09/02 04:13:48;;;;;;;11.75;4.80;;;;;;;16.87;100.00;101146.09;5051049;28;20469;-54
2023/09/02 04:16:14;;;;;;;11.95;4.45;;;;;;;16.86;100.00;101142.59;5059878;28;20162;-53
2023/09/02 04:18:39;;;;;;;6.07;4.93;;;;;;;16.85;100.00;101140.13;5059455;28;20039;-52
2023/09/02 04:21:08;;;;;;;10.70;6.03;;;;;;;16.83;100.00;101139.50;5067710;28;20071;-51
2023/09/02 04:23:34;;;;;;;7.20;4.65;;;;;;;16.85;100.00;101134.78;5057885;28;20024;-53
2023/09/02 04:26:00;;;;;;;7.55;5.10;;;;;;;16.82;100.00;101129.84;5047866;28;20037;-52
2023/09/02 04:28:25;;;;;;;5.68;3.88;;;;;;;16.81;100.00;101133.56;5059816;28;20111;-55
2023/09/02 04:30:54;;;;;;;8.43;5.40;;;;;;;16.76;100.00;101132.31;5058907;28;20083;-53
2023/09/02 04:33:22;;;;;;;7.22;5.35;;;;;;;16.78;100.00;101130.28;5055896;28;20333;-54
2023/09/02 04:35:47;;;;;;;6.95;4.53;;;;;;;16.80;100.00;101127.38;5050635;28;20033;-53
2023/09/02 04:38:12;;;;;;;8.18;5.30;;;;;;;16.78;100.00;101122.25;5043354;28;20099;-51
2023/09/02 04:40:39;;;;;;;12.30;5.57;;;;;;;16.78;100.00;101124.94;5064227;28;20039;-55
2023/09/02 04:43:06;;;;;;;8.45;4.72;;;;;;;16.77;100.00;101128.63;5046050;28;20025;-55
2023/09/02 04:45:33;;;;;;;8.00;4.78;;;;;;;16.78;100.00;101135.63;5053653;28;20409;-56
2023/09/02 04:47:58;;;;;;;7.00;4.85;;;;;;;16.79;100.00;101152.53;5055637;28;20122;-54
2023/09/02 04:50:23;;;;;;;15.20;6.15;;;;;;;16.82;100.00;101153.94;5054300;28;20272;-53
2023/09/02 04:52:49;;;;;;;8.88;4.05;;;;;;;16.83;100.00;101152.91;5059406;28;20029;-52
2023/09/02 04:55:16;;;;;;;7.80;5.95;;;;;;;16.87;100.00;101162.16;5056083;28;20032;-53
2023/09/02 04:57:41;;;;;;;13.27;7.50;;;;;;;16.88;100.00;101166.47;5055501;28;20033;-53
2023/09/02 05:00:07;;;;;;;10.35;5.97;;;;;;;16.91;100.00;101172.22;5058744;28;20059;-55
2023/09/02 05:02:32;;;;;;;8.50;5.97;;;;;;;16.94;100.00;101171.78;5059955;28;20050;-50
2023/09/02 05:04:58;;;;;;;9.75;5.38;;;;;;;16.94;100.00;101166.44;5052693;28;20234;-55
2023/09/02 05:07:23;;;;;;;7.55;6.57;;;;;;;16.89;100.00;101176.16;5057954;28;20055;-55
2023/09/02 05:09:50;;;;;;;11.80;6.10;;;;;;;16.88;100.00;101172.66;5057629;28;20422;-56
2023/09/02 05:12:15;;;;;;;16.90;5.72;;;;;;;16.86;100.00;101185.44;5058045;28;20489;-51
2023/09/02 05:14:40;;;;;;;10.05;6.28;;;;;;;16.84;100.00;101187.50;5056199;28;20084;-55
2023/09/02 05:17:06;;;;;;;8.50;5.88;;;;;;;16.85;100.00;101188.34;5062621;28;20077;-54
2023/09/02 05:19:31;;;;;;;9.13;6.78;;;;;;;16.84;100.00;101200.09;5050413;28;20028;-55
2023/09/02 05:21:57;;;;;;;10.10;5.85;;;;;;;16.81;100.00;101197.84;5058245;28;20032;-54
2023/09/02 05:24:23;;;;;;;9.02;5.70;;;;;;;16.83;100.00;101207.31;5061013;28;20024;-51
2023/09/02 05:26:48;;;;;;;9.85;6.13;;;;;;;16.84;100.00;101205.44;5058388;28;20029;-54
2023/09/02 05:29:14;;;;;;;9.32;5.03;;;;;;;16.90;100.00;101199.22;5050407;28;20039;-52
2023/09/02 05:31:39;;;;;;;9.25;4.60;;;;;;;16.90;100.00;101207.25;5061508;28;20044;-52
2023/09/02 05:34:05;;;;;;;9.68;4.68;;;;;;;16.92;100.00;101199.84;5063618;28;20490;-54
2023/09/02 05:36:30;;;;;;;10.60;5.57;;;;;;;16.94;100.00;101216.50;5063510;28;20107;-50
2023/09/02 05:38:55;;;;;;;9.65;5.95;;;;;;;16.91;100.00;101203.53;5059781;28;20273;-56
2023/09/02 05:41:21;;;;;;;9.63;5.35;;;;;;;16.91;100.00;101215.09;5064530;28;20389;-54
2023/09/02 05:43:46;;;;;;;10.32;6.18;;;;;;;16.92;100.00;101219.41;5052765;28;20098;-52
2023/09/02 05:46:11;;;;;;;8.63;4.90;;;;;;;16.90;100.00;101234.03;5051846;28;20059;-53
2023/09/02 05:48:36;;;;;;;8.77;5.85;;;;;;;16.92;100.00;101240.00;5053009;28;20029;-52
2023/09/02 05:51:02;;;;;;;8.68;5.82;;;;;;;16.91;100.00;101249.06;5063068;28;20536;-55
2023/09/02 05:53:29;;;;;;;7.70;5.05;;;;;;;16.93;100.00;101261.19;5056613;28;20107;-52
2023/09/02 05:55:57;;;;;;;12.40;5.68;;;;;;;16.95;100.00;101271.72;5061192;28;20031;-51
2023/09/02 05:58:24;;;;;;;10.60;5.95;;;;;;;17.00;100.00;101277.25;5064923;28;20059;-55
2023/09/02 06:00:49;;;;;;;9.48;6.13;;;;;;;16.98;100.00;101282.81;5059091;28;20508;-54
2023/09/02 06:03:15;;;;;;;11.38;5.35;;;;;;;17.00;100.00;101274.56;5058955;28;20041;-54
2023/09/02 06:05:40;;;;;;;13.15;5.75;;;;;;;17.02;100.00;101282.41;5052896;28;20107;-50
2023/09/02 06:08:05;;;;;;;8.73;5.32;;;;;;;17.00;100.00;101283.44;5053943;28;20378;-52
2023/09/02 06:10:30;;;;;;;8.50;4.32;;;;;;;17.01;100.00;101273.53;5051483;28;20028;-51
2023/09/02 06:12:56;;;;;;;8.32;5.05;;;;;;;17.05;100.00;101280.13;5059283;28;20146;-53
2023/09/02 06:15:21;;;;;;;10.32;6.38;;;;;;;16.95;100.00;101279.75;5051785;28;20021;-52
2023/09/02 06:17:46;;;;;;;7.53;4.53;;;;;;;16.97;100.00;101277.69;5048769;28;20453;-52
2023/09/02 06:20:15;;;;;;;7.95;4.82;;;;;;;16.98;100.00;101276.63;5054260;28;20079;-55
2023/09/02 06:22:41;;;;;;;10.73;5.85;;;;;;;16.97;100.00;101283.03;5064342;28;20044;-54
2023/09/02 06:25:07;;;;;;;10.55;5.28;;;;;;;17.00;100.00;101287.97;5052493;28;20033;-50
2023/09/02 06:27:32;;;;;;;8.93;5.72;;;;;;;17.10;100.00;101284.84;5054698;28;20485;-55
2023/09/02 06:29:57;;;;;;;8.57;5.78;;;;;;;17.14;100.00;101275.31;5057961;28;20093;-52
2023/09/02 06:32:23;;;;;;;10.52;6.47;;;;;;;17.19;100.00;101275.50;5061760;28;20127;-54
2023/09/02 06:34:48;;;;;;;12.02;5.50;;;;;;;17.25;100.00;101276.50;5048330;28;20404;-54
2023/09/02 06:37:13;;;;;;;8.77;4.15;;;;;;;17.28;100.00;101284.13;5054896;28;20124;-51
2023/09/02 06:39:39;;;;;;;7.63;4.82;;;;;;;17.29;100.00;101285.75;5053126;28;20036;-55
2023/09/02 06:42:04;;;;;;;13.18;5.95;;;;;;;17.32;100.00;101296.88;5051078;28;20037;-55
2023/09/02 06:44:30;;;;;;;8.73;5.60;;;;;;;17.38;100.00;101305.91;5055304;28;20028;-54
2023/09/02 06:46:55;;;;;;;10.68;5.82;;;;;;;17.38;100.00;101297.88;5057043;28;20048;-52
2023/09/02 06:49:20;;;;;;;13.48;7.05;;;;;;;17.39;100.00;101302.19;5056538;28;20437;-52
2023/09/02 06:51:45;;;;;;;10.35;6.15;;;;;;;17.48;100.00;101308.09;5057091;28;20036;-51
2023/09/02 06:54:11;;;;;;;14.85;6.05;;;;;;;17.51;100.00;101294.28;5050506;28;20111;-51
2023/09/02 06:56:36;;;;;;;13.80;7.13;;;;;;;17.56;100.00;101297.13;5053984;28;20079;-49
2023/09/02 06:59:03;;;;;;;12.45;5.90;;;;;;;17.60;100.00;101299.13;5053832;28;20747;-53
2023/09/02 07:01:28;;;;;;;10.68;6.32;;;;;;;17.67;100.00;101299.09;5062179;28;20489;-55
2023/09/02 07:03:55;;;;;;;10.38;6.45;;;;;;;17.83;100.00;101293.22;5047512;28;20033;-54
2023/09/02 07:06:21;;;;;;;11.95;7.10;;;;;;;17.84;100.00;101286.00;5048617;28;20104;-53
2023/09/02 07:08:47;;;;;;;11.40;7.82;;;;;;;17.79;100.00;101288.50;5045550;28;20029;-50
2023/09/02 07:11:13;;;;;;;10.05;6.75;;;;;;;17.75;100.00;101295.31;5058571;28;20039;-55
2023/09/02 07:13:39;;;;;;;11.93;6.70;;;;;;;17.71;100.00;101300.31;5058796;28;20056;-52
2023/09/02 07:16:06;;;;;;;13.52;7.63;;;;;;;17.78;100.00;101310.97;5059691;28;20028;-53
2023/09/02 07:18:32;;;;;;;15.77;8.05;;;;;;;17.94;100.00;101315.84;5054356;28;20432;-53
2023/09/02 07:21:02;;;;;;;13.77;8.18;;;;;;;18.05;100.00;101315.13;5058239;28;20478;-54
2023/09/02 07:23:28;;;;;;;11.10;7.38;;;;;;;18.25;100.00;101303.34;5048412;28;20029;-52
2023/09/02 07:25:55;;;;;;;10.68;6.55;;;;;;;18.35;100.00;101306.34;5056717;28;20033;-52
2023/09/02 07:28:21;;;;;;;12.00;7.28;;;;;;;18.35;100.00;101300.16;5054778;28;20035;-49
2023/09/02 07:30:46;;;;;;;13.95;9.02;;;;;;;18.39;100.00;101307.56;5056559;28;20044;-55
2023/09/02 07:33:11;;;;;;;11.77;7.55;;;;;;;18.41;100.00;101300.13;5059034;28;20101;-55
2023/09/02 07:35:38;;;;;;;12.77;8.65;;;;;;;18.39;100.00;101293.31;5052429;28;20128;-55
2023/09/02 07:38:06;;;;;;;12.98;8.27;;;;;;;18.43;100.00;101286.44;5056294;28;20032;-55
2023/09/02 07:40:32;;;;;;;12.65;7.95;;;;;;;18.53;100.00;101286.75;5061634;28;20384;-49
2023/09/02 07:43:00;;;;;;;8.75;7.05;;;;;;;18.59;100.00;101295.78;5056408;28;20028;-52
2023/09/02 07:45:26;;;;;;;10.63;6.55;;;;;;;18.64;100.00;101296.75;5051365;28;20560;-53
2023/09/02 07:47:51;;;;;;;10.82;6.75;;;;;;;18.68;100.00;101305.19;5056592;28;20200;-54
2023/09/02 07:50:16;;;;;;;10.23;6.32;;;;;;;18.73;100.00;101313.38;5054405;28;20119;-53
2023/09/02 07:52:42;;;;;;;8.90;6.95;;;;;;;18.71;100.00;101307.41;5061740;28;20024;-55
2023/09/02 07:55:07;;;;;;;14.70;7.90;;;;;;;18.61;100.00;101301.75;5052628;28;20033;-51
2023/09/02 07:57:32;;;;;;;8.25;5.90;;;;;;;18.53;100.00;101306.38;5054811;28;20031;-53
2023/09/02 07:59:59;;;;;;;8.77;6.05;;;;;;;18.69;100.00;101309.50;5055270;28;20031;-52
2023/09/02 08:02:24;;;;;;;9.45;6.78;;;;;;;19.02;100.00;101305.59;5057617;28;20048;-53
2023/09/02 08:04:50;;;;;;;7.85;5.05;;;;;;;19.28;100.00;101299.84;5063923;28;20697;-55
2023/09/02 08:07:15;;;;;;;8.23;5.38;;;;;;;19.45;100.00;101299.22;5052012;28;20403;-51
2023/09/02 08:09:40;;;;;;;5.05;4.00;;;;;;;19.53;100.00;101291.63;5056384;28;20491;-54
2023/09/02 08:12:06;;;;;;;7.20;5.18;;;;;;;19.53;100.00;101286.25;5049046;28;20036;-52
2023/09/02 08:14:32;;;;;;;6.13;4.45;;;;;;;19.52;100.00;101270.38;5061106;28;20033;-53
2023/09/02 08:16:57;;;;;;;6.38;4.28;;;;;;;19.58;100.00;101274.81;5062743;28;20029;-52
2023/09/02 08:19:23;;;;;;;6.88;4.80;;;;;;;19.73;100.00;101277.09;5054565;28;20036;-56
2023/09/02 08:21:48;;;;;;;7.47;6.00;;;;;;;19.87;100.00;101280.38;5047041;28;20037;-56
2023/09/02 08:24:13;;;;;;;7.60;5.72;;;;;;;19.82;100.00;101278.38;5049196;28;20147;-56
2023/09/02 08:26:41;;;;;;;7.35;6.00;;;;;;;19.70;100.00;101286.44;5052076;28;20067;-51
2023/09/02 08:29:06;;;;;;;7.28;6.25;;;;;;;19.90;100.00;101286.09;5049604;28;20037;-55
2023/09/02 08:31:32;;;;;;;6.97;5.45;;;;;;;20.13;100.00;101282.59;5056477;28;20465;-52
2023/09/02 08:33:57;;;;;;;5.63;4.22;;;;;;;20.18;100.00;101288.09;5060506;28;20020;-51
2023/09/02 08:36:23;;;;;;;10.30;5.45;;;;;;;19.96;100.00;101276.28;5056607;28;20060;-53
2023/09/02 08:38:48;;;;;;;6.97;6.10;;;;;;;19.91;100.00;101278.88;5052832;28;20025;-53
2023/09/02 08:41:30;;;;;;;8.43;4.72;;;;;;;20.08;100.00;101287.84;5057304;28;20091;-54
2023/09/02 08:44:00;;;;;;;6.22;5.32;;;;;;;20.41;100.00;101283.72;5048667;28;20029;-50
2023/09/02 08:46:29;;;;;;;5.55;4.43;;;;;;;20.56;100.00;101278.69;5052649;28;20042;-55
2023/09/02 08:48:58;;;;;;;6.43;4.40;;;;;;;20.66;100.00;101283.47;5051555;28;20067;-53
2023/09/02 08:51:24;;;;;;;4.78;3.45;;;;;;;20.64;100.00;101274.81;5070010;28;20653;-52
2023/09/02 08:53:53;;;;;;;5.80;3.45;;;;;;;20.57;100.00;101279.50;5060446;28;20478;-50
2023/09/02 08:56:18;;;;;;;5.72;3.28;;;;;;;20.51;100.00;101281.25;5055068;28;20478;-54
2023/09/02 08:58:45;;;;;;;3.03;2.78;;;;;;;20.53;100.00;101294.50;5051189;28;20722;-53
2023/09/02 09:01:16;;;;;;;4.50;2.70;;;;;;;20.63;100.00;101295.56;5052584;28;20524;-58
2023/09/02 09:03:48;;;;;;;6.90;3.33;;;;;;;20.61;100.00;101304.94;5057922;28;20041;-56
2023/09/02 09:06:15;;;;;;;4.53;3.72;;;;;;;20.64;100.00;101315.22;5054936;28;20043;-54
2023/09/02 09:08:41;;;;;;;7.40;4.88;;;;;;;20.44;100.00;101318.25;5056649;28;20208;-51
2023/09/02 09:11:07;;;;;;;3.78;3.47;;;;;;;20.30;100.00;101328.47;5060284;28;20137;-54
2023/09/02 09:13:35;;;;;;;4.53;3.63;;;;;;;20.28;100.00;101330.56;5052406;28;20107;-56
2023/09/02 09:16:01;;;;;;;5.00;3.88;;;;;;;20.37;100.00;101337.25;5054534;28;20514;-54
2023/09/02 09:18:27;;;;;;;3.92;3.53;;;;;;;20.37;100.00;101334.56;5054607;28;20052;-55
2023/09/02 09:20:53;;;;;;;3.40;3.10;;;;;;;20.56;100.00;101331.75;5057192;28;20130;-55
2023/09/02 09:23:18;;;;;;;7.07;3.95;;;;;;;20.35;100.00;101346.63;5050488;28;20142;-52
2023/09/02 09:25:49;;;;;;;5.82;3.47;;;;;;;20.31;100.00;101348.13;5048739;28;20387;-52
2023/09/02 09:28:14;;;;;;;3.42;3.10;;;;;;;20.31;100.00;101353.53;5046388;28;20575;-53
2023/09/02 09:30:39;;;;;;;5.20;4.70;;;;;;;20.45;100.00;101363.03;5039439;28;20037;-54
2023/09/02 09:33:05;;;;;;;4.25;3.47;;;;;;;20.67;100.00;101363.25;5064127;28;20036;-55
2023/09/02 09:35:35;;;;;;;4.40;3.63;;;;;;;20.72;100.00;101354.47;5050264;28;20036;-51
2023/09/02 09:38:01;;;;;;;5.22;3.97;;;;;;;20.80;100.00;101365.69;5055614;28;20054;-56
2023/09/02 09:40:44;;;;;;;3.13;2.92;;;;;;;20.92;100.00;101362.97;5059987;28;20136;-52
2023/09/02 09:43:20;;;;;;;4.22;3.83;;;;;;;21.11;100.00;101355.50;5056404;28;20470;-53
2023/09/02 09:45:52;;;;;;;3.63;2.92;;;;;;;21.31;100.00;101349.69;5056374;28;20024;-51
2023/09/02 09:48:17;;;;;;;3.03;2.75;;;;;;;21.51;100.00;101360.91;5055029;28;20028;-53
2023/09/02 09:50:43;;;;;;;2.20;2.00;;;;;;;21.66;100.00;101351.41;5056767;28;20473;-53
2023/09/02 09:53:09;;;;;;;4.13;2.58;;;;;;;21.65;100.00;101349.78;5049346;28;20060;-55
2023/09/02 09:55:36;;;;;;;2.08;1.92;;;;;;;21.58;100.00;101349.94;5048975;28;20025;-53
2023/09/02 09:58:02;;;;;;;2.15;2.00;;;;;;;21.60;100.00;101355.09;5049185;28;20032;-54
2023/09/02 10:00:28;;;;;;;4.15;2.38;;;;;;;21.69;100.00;101359.88;5050049;28;20022;-55
2023/09/02 10:02:55;;;;;;;1.48;1.38;;;;;;;21.70;100.00;101360.66;5041191;28;20051;-55
2023/09/02 10:05:28;;;;;;;1.95;1.25;;;;;;;21.72;100.00;101369.34;5038422;28;20089;-52
2023/09/02 10:08:04;;;;;;;0.98;0.98;;;;;;;21.51;100.00;101355.50;5040385;28;20458;-54
2023/09/02 10:10:31;;;;;;;1.80;1.38;;;;;;;21.60;100.00;101363.19;5038876;28;20596;-57
2023/09/02 10:12:58;;;;;;;1.08;0.82;;;;;;;21.78;100.00;101362.97;5049561;28;20119;-55
2023/09/02 10:15:27;;;;;;;1.38;1.05;;;;;;;21.93;100.00;101365.91;5049663;28;20032;-57
2023/09/02 10:17:59;;;;;;;3.03;2.63;;;;;;;21.87;100.00;101361.50;5045226;28;20133;-58
2023/09/02 10:20:30;;;;;;;2.58;1.48;;;;;;;21.71;100.00;101365.00;5040748;28;20033;-53
2023/09/02 10:23:06;;;;;;;2.60;2.40;;;;;;;21.73;100.00;101365.56;5049594;28;20435;-53
2023/09/02 10:26:00;;;;;;;2.35;1.25;;;;;;;21.95;100.00;101369.19;5041617;28;20043;-53
2023/09/02 10:28:38;;;;;;;2.25;1.25;;;;;;;22.09;100.00;101372.38;5044404;28;20537;-52
2023/09/02 10:31:19;;;;;;;1.35;1.15;;;;;;;22.18;100.00;101380.91;5041065;28;20163;-57
2023/09/02 10:33:45;;;;;;;;;;;;;;;22.40;100.00;101360.19;5041042;28;20041;-53
2023/09/02 10:36:16;;;;;;;3.50;2.05;;;;;;;22.20;100.00;101367.97;5046292;28;19927;-56
2023/09/02 10:38:46;;;;;;;2.70;1.70;;;;;;;22.14;100.00;101379.75;5042829;28;20024;-56
2023/09/02 10:41:16;;;;;;;3.08;2.22;;;;;;;22.18;100.00;101376.31;5042927;28;20124;-58
2023/09/02 10:43:43;;;;;;;3.35;2.53;;;;;;;22.19;100.00;101377.97;5037279;28;20029;-58
2023/09/02 10:46:09;;;;;;;3.83;2.47;;;;;;;22.07;100.00;101377.22;5047449;28;20106;-58
2023/09/02 10:48:38;;;;;;;7.38;3.50;;;;;;;22.02;100.00;101377.16;5041424;28;20474;-55
2023/09/02 10:51:05;;;;;;;4.78;3.20;;;;;;;22.08;100.00;101380.75;5038709;28;20115;-58
2023/09/02 10:53:50;;;;;;;7.57;4.40;;;;;;;22.00;100.00;101371.16;5040314;28;20033;-58
2023/09/02 10:56:25;;;;;;;6.85;3.17;;;;;;;22.24;100.00;101379.13;5043325;28;20046;-54
2023/09/02 10:58:51;;;;;;;4.53;2.85;;;;;;;22.61;100.00;101373.97;5035480;28;20028;-51
2023/09/02 11:01:17;;;;;;;3.97;1.63;;;;;;;22.71;100.00;101371.41;5036605;28;20155;-54
2023/09/02 11:03:46;;;;;;;2.70;1.67;;;;;;;22.80;100.00;101375.31;5040372;28;20304;-50
2023/09/02 11:06:14;;;;;;;1.75;1.15;;;;;;;22.66;100.00;101368.63;5038429;28;20512;-53
2023/09/02 11:08:51;;;;;;;1.30;1.20;;;;;;;22.45;100.00;101388.34;5041393;28;20033;-57
2023/09/02 11:11:17;;;;;;;2.35;2.00;;;;;;;22.19;100.00;101380.66;5039317;28;20593;-55
2023/09/02 11:14:07;;;;;;;2.45;2.22;;;;;;;22.23;100.00;101382.88;5038876;28;20041;-52